sensor_id;sensor_type;location;lat;lon;timestamp;pressure;altitude;pressure_sealevel;temperature;humidity
76478;BME280;65309;49.790;18.972;2024-02-26T00:03:03;60079.13;;;-145.46;100.00
76478;BME280;65309;49.790;18.972;2024-02-26T00:08:06;60098.03;;;-145.46;100.00
76478;BME280;65309;49.790;18.972;2024-02-26T00:13:10;60110.66;;;-145.46;100.00
76478;BME280;65309;49.790;18.972;2024-02-26T00:18:12;60053.91;;;-145.46;100.00
76478;BME280;65309;49.790;18.972;2024-02-26T00:23:15;60062.31;;;-145.46;100.00
76478;BME280;65309;49.790;18.972;2024-02-26T00:28:18;60089.63;;;-145.46;100.00
76478;BME280;65309;49.790;18.972;2024-02-26T00:33:22;60058.09;;;-145.46;100.00
76478;BME280;65309;49.790;18.972;2024-02-26T00:38:24;60072.81;;;-145.46;100.00
76478;BME280;65309;49.790;18.972;2024-02-26T00:43:28;60060.19;;;-145.46;100.00
76478;BME280;65309;49.790;18.972;2024-02-26T00:48:30;60079.13;;;-145.46;100.00
76478;BME280;65309;49.790;18.972;2024-02-26T00:53:32;60083.31;;;-145.46;100.00
76478;BME280;65309;49.790;18.972;2024-02-26T00:58:36;60072.81;;;-145.46;100.00
76478;BME280;65309;49.790;18.972;2024-02-26T01:03:38;60091.72;;;-145.46;100.00
76478;BME280;65309;49.790;18.972;2024-02-26T01:08:40;60108.56;;;-145.46;100.00
76478;BME280;65309;49.790;18.972;2024-02-26T01:13:44;60116.97;;;-145.46;100.00
76478;BME280;65309;49.790;18.972;2024-02-26T01:18:46;60060.19;;;-145.46;100.00
76478;BME280;65309;49.790;18.972;2024-02-26T01:23:48;60074.91;;;-145.46;100.00
76478;BME280;65309;49.790;18.972;2024-02-26T01:28:52;60091.72;;;-145.46;100.00
76478;BME280;65309;49.790;18.972;2024-02-26T01:33:54;60102.25;;;-145.46;100.00
76478;BME280;65309;49.790;18.972;2024-02-26T01:38:57;60070.72;;;-145.46;100.00
76478;BME280;65309;49.790;18.972;2024-02-26T01:44:00;60060.19;;;-145.46;100.00
76478;BME280;65309;49.790;18.972;2024-02-26T01:49:03;60074.91;;;-145.46;100.00
76478;BME280;65309;49.790;18.972;2024-02-26T01:54:06;60085.44;;;-145.46;100.00
76478;BME280;65309;49.790;18.972;2024-02-26T01:59:11;60058.09;;;-145.46;100.00
76478;BME280;65309;49.790;18.972;2024-02-26T02:04:14;60072.81;;;-145.46;100.00
76478;BME280;65309;49.790;18.972;2024-02-26T02:09:16;60104.34;;;-145.46;100.00
76478;BME280;65309;49.790;18.972;2024-02-26T02:14:21;60077.00;;;-145.46;100.00
76478;BME280;65309;49.790;18.972;2024-02-26T02:19:23;60108.56;;;-145.46;100.00
76478;BME280;65309;49.790;18.972;2024-02-26T02:24:26;60087.53;;;-145.46;100.00
76478;BME280;65309;49.790;18.972;2024-02-26T02:29:28;60062.31;;;-145.46;100.00
76478;BME280;65309;49.790;18.972;2024-02-26T02:34:31;60070.72;;;-145.46;100.00
76478;BME280;65309;49.790;18.972;2024-02-26T02:39:36;60100.13;;;-145.46;100.00
76478;BME280;65309;49.790;18.972;2024-02-26T02:44:38;60066.50;;;-145.46;100.00
76478;BME280;65309;49.790;18.972;2024-02-26T02:49:40;60081.22;;;-145.46;100.00
76478;BME280;65309;49.790;18.972;2024-02-26T02:54:44;60085.44;;;-145.46;100.00
76478;BME280;65309;49.790;18.972;2024-02-26T02:59:46;60087.53;;;-145.46;100.00
76478;BME280;65309;49.790;18.972;2024-02-26T03:04:48;60045.47;;;-145.46;100.00
76478;BME280;65309;49.790;18.972;2024-02-26T03:09:52;60070.72;;;-145.46;100.00
76478;BME280;65309;49.790;18.972;2024-02-26T03:14:53;60041.28;;;-145.46;100.00
76478;BME280;65309;49.790;18.972;2024-02-26T03:19:56;60087.53;;;-145.46;100.00
76478;BME280;65309;49.790;18.972;2024-02-26T03:25:00;60074.91;;;-145.46;98.01
76478;BME280;65309;49.790;18.972;2024-02-26T03:30:02;60074.91;;;-145.46;94.91
76478;BME280;65309;49.790;18.972;2024-02-26T03:35:06;60072.81;;;-145.46;92.42
76478;BME280;65309;49.790;18.972;2024-02-26T03:40:12;60081.22;;;-145.46;89.84
76478;BME280;65309;49.790;18.972;2024-02-26T03:45:16;60085.44;;;-145.46;87.74
76478;BME280;65309;49.790;18.972;2024-02-26T03:50:18;60079.13;;;-145.46;85.65
76478;BME280;65309;49.790;18.972;2024-02-26T03:55:22;60032.88;;;-145.46;84.06
76478;BME280;65309;49.790;18.972;2024-02-26T04:00:26;60034.97;;;-145.46;83.27
76478;BME280;65309;49.790;18.972;2024-02-26T04:05:31;60034.97;;;-145.46;81.35
76478;BME280;65309;49.790;18.972;2024-02-26T04:10:34;60068.59;;;-145.46;80.71
76478;BME280;65309;49.790;18.972;2024-02-26T04:15:37;60026.56;;;-145.46;82.60
76478;BME280;65309;49.790;18.972;2024-02-26T04:20:39;60058.09;;;-145.46;85.98
76478;BME280;65309;49.790;18.972;2024-02-26T04:25:45;60060.19;;;-145.46;89.16
76478;BME280;65309;49.790;18.972;2024-02-26T04:30:47;60087.53;;;-145.46;90.00
76478;BME280;65309;49.790;18.972;2024-02-26T04:35:50;60049.69;;;-145.46;94.00
76478;BME280;65309;49.790;18.972;2024-02-26T04:40:53;60037.06;;;-145.46;95.88
76478;BME280;65309;49.790;18.972;2024-02-26T04:45:55;60068.59;;;-145.46;97.69
76478;BME280;65309;49.790;18.972;2024-02-26T04:50:59;60062.31;;;-145.46;99.96
76478;BME280;65309;49.790;18.972;2024-02-26T04:56:03;60024.47;;;-145.46;100.00
76478;BME280;65309;49.790;18.972;2024-02-26T05:01:05;60077.00;;;-145.46;100.00
76478;BME280;65309;49.790;18.972;2024-02-26T05:06:08;60049.69;;;-145.46;100.00
76478;BME280;65309;49.790;18.972;2024-02-26T05:11:12;60068.59;;;-145.46;100.00
76478;BME280;65309;49.790;18.972;2024-02-26T05:16:14;60053.91;;;-145.46;100.00
76478;BME280;65309;49.790;18.972;2024-02-26T05:21:16;60028.66;;;-145.46;100.00
76478;BME280;65309;49.790;18.972;2024-02-26T05:26:20;60072.81;;;-145.46;100.00
76478;BME280;65309;49.790;18.972;2024-02-26T05:31:23;60074.91;;;-145.46;100.00
76478;BME280;65309;49.790;18.972;2024-02-26T05:36:25;60034.97;;;-145.46;100.00
76478;BME280;65309;49.790;18.972;2024-02-26T05:41:29;60045.47;;;-145.46;99.42
76478;BME280;65309;49.790;18.972;2024-02-26T05:46:31;60062.31;;;-145.46;99.22
76478;BME280;65309;49.790;18.972;2024-02-26T05:51:33;60070.72;;;-145.46;99.99
76478;BME280;65309;49.790;18.972;2024-02-26T05:56:37;60028.66;;;-145.46;100.00
76478;BME280;65309;49.790;18.972;2024-02-26T06:01:39;60058.09;;;-145.46;100.00
76478;BME280;65309;49.790;18.972;2024-02-26T06:06:41;60049.69;;;-145.46;99.10
76478;BME280;65309;49.790;18.972;2024-02-26T06:11:46;60079.13;;;-145.46;100.00
76478;BME280;65309;49.790;18.972;2024-02-26T06:16:48;60062.31;;;-145.46;100.00
76478;BME280;65309;49.790;18.972;2024-02-26T06:21:51;60070.72;;;-145.46;100.00
76478;BME280;65309;49.790;18.972;2024-02-26T06:26:55;60068.59;;;-145.46;100.00
76478;BME280;65309;49.790;18.972;2024-02-26T06:31:57;60051.78;;;-145.46;100.00
76478;BME280;65309;49.790;18.972;2024-02-26T06:36:59;60056.00;;;-145.46;100.00
76478;BME280;65309;49.790;18.972;2024-02-26T06:42:03;60087.53;;;-145.46;100.00
76478;BME280;65309;49.790;18.972;2024-02-26T06:47:05;60070.72;;;-145.46;100.00
76478;BME280;65309;49.790;18.972;2024-02-26T06:52:07;60074.91;;;-145.46;99.27
76478;BME280;65309;49.790;18.972;2024-02-26T06:57:11;60072.81;;;-145.46;97.87
76478;BME280;65309;49.790;18.972;2024-02-26T07:02:13;60039.19;;;-145.46;97.92
76478;BME280;65309;49.790;18.972;2024-02-26T07:07:16;60081.22;;;-145.46;97.40
76478;BME280;65309;49.790;18.972;2024-02-26T07:12:21;60079.13;;;-145.46;97.30
76478;BME280;65309;49.790;18.972;2024-02-26T07:17:23;60079.13;;;-145.46;95.41
76478;BME280;65309;49.790;18.972;2024-02-26T07:22:26;60024.47;;;-145.46;94.48
76478;BME280;65309;49.790;18.972;2024-02-26T07:27:29;60039.19;;;-145.46;96.37
76478;BME280;65309;49.790;18.972;2024-02-26T07:32:32;60066.50;;;-145.46;95.99
76478;BME280;65309;49.790;18.972;2024-02-26T07:37:34;60051.78;;;-145.46;94.28
76478;BME280;65309;49.790;18.972;2024-02-26T07:42:37;60020.25;;;-145.46;93.99
76478;BME280;65309;49.790;18.972;2024-02-26T07:47:41;60053.91;;;-145.46;93.78
76478;BME280;65309;49.790;18.972;2024-02-26T07:52:44;60041.28;;;-145.46;92.63
76478;BME280;65309;49.790;18.972;2024-02-26T07:57:47;60070.72;;;-145.46;90.50
76478;BME280;65309;49.790;18.972;2024-02-26T08:02:49;60020.25;;;-145.46;90.90
76478;BME280;65309;49.790;18.972;2024-02-26T08:07:52;60024.47;;;-145.46;89.75
76478;BME280;65309;49.790;18.972;2024-02-26T08:12:55;60041.28;;;-145.46;88.12
76478;BME280;65309;49.790;18.972;2024-02-26T08:18:00;60018.16;;;-145.46;87.63
76478;BME280;65309;49.790;18.972;2024-02-26T08:23:05;60037.06;;;-145.46;88.53
76478;BME280;65309;49.790;18.972;2024-02-26T08:28:08;60016.06;;;-145.46;87.35
76478;BME280;65309;49.790;18.972;2024-02-26T08:33:13;59980.31;;;-145.46;86.28
76478;BME280;65309;49.790;18.972;2024-02-26T08:38:16;59974.00;;;-145.46;83.89
76478;BME280;65309;49.790;18.972;2024-02-26T08:43:19;60016.06;;;-145.46;83.29
76478;BME280;65309;49.790;18.972;2024-02-26T08:48:21;60018.16;;;-145.46;81.96
76478;BME280;65309;49.790;18.972;2024-02-26T08:53:23;60005.53;;;-145.46;82.52
76478;BME280;65309;49.790;18.972;2024-02-26T08:58:40;60032.88;;;-145.46;81.82
76478;BME280;65309;49.790;18.972;2024-02-26T09:03:42;60032.88;;;-145.46;81.81
76478;BME280;65309;49.790;18.972;2024-02-26T09:08:45;60007.66;;;-145.46;81.38
76478;BME280;65309;49.790;18.972;2024-02-26T09:13:48;60016.06;;;-145.46;81.80
76478;BME280;65309;49.790;18.972;2024-02-26T09:18:51;60016.06;;;-145.46;80.12
76478;BME280;65309;49.790;18.972;2024-02-26T09:23:53;60018.16;;;-145.46;80.36
76478;BME280;65309;49.790;18.972;2024-02-26T09:28:57;59999.22;;;-145.46;81.28
76478;BME280;65309;49.790;18.972;2024-02-26T09:34:00;60028.66;;;-145.46;80.59
76478;BME280;65309;49.790;18.972;2024-02-26T09:39:04;59990.81;;;-145.46;80.24
76478;BME280;65309;49.790;18.972;2024-02-26T09:44:09;60011.84;;;-145.46;80.54
76478;BME280;65309;49.790;18.972;2024-02-26T09:49:12;60018.16;;;-145.46;80.32
76478;BME280;65309;49.790;18.972;2024-02-26T09:54:16;60045.47;;;-145.46;79.61
76478;BME280;65309;49.790;18.972;2024-02-26T09:59:21;60028.66;;;-145.46;78.31
76478;BME280;65309;49.790;18.972;2024-02-26T10:04:23;59992.94;;;-145.46;77.97
76478;BME280;65309;49.790;18.972;2024-02-26T10:09:26;59980.31;;;-145.46;76.50
76478;BME280;65309;49.790;18.972;2024-02-26T10:14:30;60016.06;;;-145.46;75.31
76478;BME280;65309;49.790;18.972;2024-02-26T10:19:32;60001.34;;;-145.46;76.02
76478;BME280;65309;49.790;18.972;2024-02-26T10:24:38;59990.81;;;-145.46;76.95
76478;BME280;65309;49.790;18.972;2024-02-26T10:29:42;59957.19;;;-145.46;77.71
76478;BME280;65309;49.790;18.972;2024-02-26T10:34:45;60001.34;;;-145.46;79.70
76478;BME280;65309;49.790;18.972;2024-02-26T10:39:47;60001.34;;;-145.46;80.76
76478;BME280;65309;49.790;18.972;2024-02-26T10:44:51;60007.66;;;-145.46;79.36
76478;BME280;65309;49.790;18.972;2024-02-26T10:49:53;59971.91;;;-145.46;80.53
76478;BME280;65309;49.790;18.972;2024-02-26T10:54:56;60032.88;;;-145.46;81.61
76478;BME280;65309;49.790;18.972;2024-02-26T11:00:04;59969.81;;;-145.46;82.36
76478;BME280;65309;49.790;18.972;2024-02-26T11:05:08;60022.34;;;-145.46;84.13
76478;BME280;65309;49.790;18.972;2024-02-26T11:10:11;59963.50;;;-145.46;77.18
76478;BME280;65309;49.790;18.972;2024-02-26T11:15:16;59999.22;;;-145.46;77.46
76478;BME280;65309;49.790;18.972;2024-02-26T11:20:20;60013.94;;;-145.46;75.01
76478;BME280;65309;49.790;18.972;2024-02-26T11:25:22;59978.22;;;-145.46;74.79
76478;BME280;65309;49.790;18.972;2024-02-26T11:30:29;60026.56;;;-145.46;75.22
76478;BME280;65309;49.790;18.972;2024-02-26T11:35:32;59982.41;;;-145.46;74.77
76478;BME280;65309;49.790;18.972;2024-02-26T11:40:38;59971.91;;;-145.46;74.53
76478;BME280;65309;49.790;18.972;2024-02-26T11:45:49;59950.88;;;-145.46;74.85
76478;BME280;65309;49.790;18.972;2024-02-26T11:50:54;60020.25;;;-145.46;74.18
76478;BME280;65309;49.790;18.972;2024-02-26T11:56:23;59992.94;;;-145.46;73.31
76478;BME280;65309;49.790;18.972;2024-02-26T12:01:39;59980.31;;;-145.46;73.98
76478;BME280;65309;49.790;18.972;2024-02-26T12:06:43;59999.22;;;-145.46;73.92
76478;BME280;65309;49.790;18.972;2024-02-26T12:11:47;59974.00;;;-145.46;72.75
76478;BME280;65309;49.790;18.972;2024-02-26T12:16:51;59986.63;;;-145.46;69.04
76478;BME280;65309;49.790;18.972;2024-02-26T12:21:54;59934.06;;;-145.46;70.49
76478;BME280;65309;49.790;18.972;2024-02-26T12:26:56;59950.88;;;-145.46;69.07
76478;BME280;65309;49.790;18.972;2024-02-26T12:32:01;59995.03;;;-145.46;67.41
76478;BME280;65309;49.790;18.972;2024-02-26T12:37:08;59940.38;;;-145.46;67.40
76478;BME280;65309;49.790;18.972;2024-02-26T12:42:12;60003.44;;;-145.46;66.56
76478;BME280;65309;49.790;18.972;2024-02-26T12:47:15;59931.97;;;-145.46;66.90
76478;BME280;65309;49.790;18.972;2024-02-26T12:52:18;59965.59;;;-145.46;64.58
76478;BME280;65309;49.790;18.972;2024-02-26T12:57:21;59940.38;;;-145.46;64.67
76478;BME280;65309;49.790;18.972;2024-02-26T13:02:25;59950.88;;;-145.46;62.70
76478;BME280;65309;49.790;18.972;2024-02-26T13:07:27;59953.00;;;-145.46;62.78
76478;BME280;65309;49.790;18.972;2024-02-26T13:12:30;59959.28;;;-145.46;62.75
76478;BME280;65309;49.790;18.972;2024-02-26T13:17:33;60011.84;;;-145.46;63.73
76478;BME280;65309;49.790;18.972;2024-02-26T13:22:36;59953.00;;;-145.46;64.60
76478;BME280;65309;49.790;18.972;2024-02-26T13:27:38;59957.19;;;-145.46;65.88
76478;BME280;65309;49.790;18.972;2024-02-26T13:32:41;59990.81;;;-145.46;64.54
76478;BME280;65309;49.790;18.972;2024-02-26T13:37:45;59969.81;;;-145.46;64.42
76478;BME280;65309;49.790;18.972;2024-02-26T13:42:47;59974.00;;;-145.46;65.24
76478;BME280;65309;49.790;18.972;2024-02-26T13:47:51;59965.59;;;-145.46;62.81
76478;BME280;65309;49.790;18.972;2024-02-26T13:52:54;59969.81;;;-145.46;63.58
76478;BME280;65309;49.790;18.972;2024-02-26T13:57:58;59963.50;;;-145.46;63.25
76478;BME280;65309;49.790;18.972;2024-02-26T14:03:04;59982.41;;;-145.46;65.71
76478;BME280;65309;49.790;18.972;2024-02-26T14:08:08;59986.63;;;-145.46;64.88
76478;BME280;65309;49.790;18.972;2024-02-26T14:13:11;59995.03;;;-145.46;65.04
76478;BME280;65309;49.790;18.972;2024-02-26T14:18:14;59990.81;;;-145.46;64.66
76478;BME280;65309;49.790;18.972;2024-02-26T14:23:16;59980.31;;;-145.46;64.29
76478;BME280;65309;49.790;18.972;2024-02-26T14:28:19;60041.28;;;-145.46;68.34
76478;BME280;65309;49.790;18.972;2024-02-26T14:33:31;60009.75;;;-145.46;68.54
76478;BME280;65309;49.790;18.972;2024-02-26T14:38:33;59999.22;;;-145.46;68.10
76478;BME280;65309;49.790;18.972;2024-02-26T14:43:35;60020.25;;;-145.46;68.77
76478;BME280;65309;49.790;18.972;2024-02-26T14:48:39;59969.81;;;-145.46;68.60
76478;BME280;65309;49.790;18.972;2024-02-26T14:53:41;59999.22;;;-145.46;70.76
76478;BME280;65309;49.790;18.972;2024-02-26T14:58:44;60001.34;;;-145.46;71.68
76478;BME280;65309;49.790;18.972;2024-02-26T15:03:47;59976.13;;;-145.46;73.07
76478;BME280;65309;49.790;18.972;2024-02-26T15:08:50;60003.44;;;-145.46;74.98
76478;BME280;65309;49.790;18.972;2024-02-26T15:13:52;60026.56;;;-145.46;75.18
76478;BME280;65309;49.790;18.972;2024-02-26T15:18:55;60041.28;;;-145.46;73.19
76478;BME280;65309;49.790;18.972;2024-02-26T15:23:58;60066.50;;;-145.46;74.26
76478;BME280;65309;49.790;18.972;2024-02-26T15:29:09;60005.53;;;-145.46;74.30
76478;BME280;65309;49.790;18.972;2024-02-26T15:34:12;59992.94;;;-145.46;74.66
76478;BME280;65309;49.790;18.972;2024-02-26T15:39:15;60007.66;;;-145.46;77.74
76478;BME280;65309;49.790;18.972;2024-02-26T15:44:17;59990.81;;;-145.46;78.09
76478;BME280;65309;49.790;18.972;2024-02-26T15:49:21;60045.47;;;-145.46;79.98
76478;BME280;65309;49.790;18.972;2024-02-26T15:54:24;59984.53;;;-145.46;81.89
76478;BME280;65309;49.790;18.972;2024-02-26T15:59:26;60039.19;;;-145.46;83.20
76478;BME280;65309;49.790;18.972;2024-02-26T16:04:30;60032.88;;;-145.46;83.65
76478;BME280;65309;49.790;18.972;2024-02-26T16:09:32;60028.66;;;-145.46;83.54
76478;BME280;65309;49.790;18.972;2024-02-26T16:14:41;60011.84;;;-145.46;84.44
76478;BME280;65309;49.790;18.972;2024-02-26T16:19:47;60030.78;;;-145.46;85.72
76478;BME280;65309;49.790;18.972;2024-02-26T16:24:50;60049.69;;;-145.46;86.65
76478;BME280;65309;49.790;18.972;2024-02-26T16:29:52;59978.22;;;-145.46;87.04
76478;BME280;65309;49.790;18.972;2024-02-26T16:34:58;60032.88;;;-145.46;86.16
76478;BME280;65309;49.790;18.972;2024-02-26T16:40:03;60007.66;;;-145.46;86.60
76478;BME280;65309;49.790;18.972;2024-02-26T16:45:11;60041.28;;;-145.46;87.29
76478;BME280;65309;49.790;18.972;2024-02-26T16:50:16;60039.19;;;-145.46;89.04
76478;BME280;65309;49.790;18.972;2024-02-26T16:55:18;59990.81;;;-145.46;87.90
76478;BME280;65309;49.790;18.972;2024-02-26T17:00:21;60016.06;;;-145.46;88.69
76478;BME280;65309;49.790;18.972;2024-02-26T17:05:25;60020.25;;;-145.46;90.00
76478;BME280;65309;49.790;18.972;2024-02-26T17:10:27;60030.78;;;-145.46;90.35
76478;BME280;65309;49.790;18.972;2024-02-26T17:15:29;60081.22;;;-145.46;90.29
76478;BME280;65309;49.790;18.972;2024-02-26T17:20:33;60016.06;;;-145.46;90.30
76478;BME280;65309;49.790;18.972;2024-02-26T17:25:36;60077.00;;;-145.46;90.30
76478;BME280;65309;49.790;18.972;2024-02-26T17:30:38;60032.88;;;-145.46;91.23
76478;BME280;65309;49.790;18.972;2024-02-26T17:35:44;60079.13;;;-145.46;91.06
76478;BME280;65309;49.790;18.972;2024-02-26T17:40:47;60066.50;;;-145.46;90.89
76478;BME280;65309;49.790;18.972;2024-02-26T17:45:49;60041.28;;;-145.46;92.06
76478;BME280;65309;49.790;18.972;2024-02-26T17:50:53;60024.47;;;-145.46;92.02
76478;BME280;65309;49.790;18.972;2024-02-26T17:55:55;60037.06;;;-145.46;93.30
76478;BME280;65309;49.790;18.972;2024-02-26T18:00:58;60024.47;;;-145.46;93.76
76478;BME280;65309;49.790;18.972;2024-02-26T18:06:02;60028.66;;;-145.46;93.69
76478;BME280;65309;49.790;18.972;2024-02-26T18:11:07;60039.19;;;-145.46;93.76
76478;BME280;65309;49.790;18.972;2024-02-26T18:16:10;60072.81;;;-145.46;94.45
76478;BME280;65309;49.790;18.972;2024-02-26T18:21:13;60045.47;;;-145.46;94.47
76478;BME280;65309;49.790;18.972;2024-02-26T18:26:18;60032.88;;;-145.46;94.31
76478;BME280;65309;49.790;18.972;2024-02-26T18:31:23;60060.19;;;-145.46;94.42
76478;BME280;65309;49.790;18.972;2024-02-26T18:36:27;60045.47;;;-145.46;92.33
76478;BME280;65309;49.790;18.972;2024-02-26T18:41:29;60034.97;;;-145.46;92.76
76478;BME280;65309;49.790;18.972;2024-02-26T18:46:31;60028.66;;;-145.46;87.96
76478;BME280;65309;49.790;18.972;2024-02-26T18:51:34;60018.16;;;-145.46;86.61
76478;BME280;65309;49.790;18.972;2024-02-26T18:56:37;60045.47;;;-145.46;86.57
76478;BME280;65309;49.790;18.972;2024-02-26T19:01:39;60037.06;;;-145.46;85.54
76478;BME280;65309;49.790;18.972;2024-02-26T19:06:43;60037.06;;;-145.46;86.01
76478;BME280;65309;49.790;18.972;2024-02-26T19:11:46;60062.31;;;-145.46;86.01
76478;BME280;65309;49.790;18.972;2024-02-26T19:16:50;60022.34;;;-145.46;86.24
76478;BME280;65309;49.790;18.972;2024-02-26T19:21:54;60013.94;;;-145.46;86.93
76478;BME280;65309;49.790;18.972;2024-02-26T19:26:59;60032.88;;;-145.46;86.30
76478;BME280;65309;49.790;18.972;2024-02-26T19:32:01;60020.25;;;-145.46;86.86
76478;BME280;65309;49.790;18.972;2024-02-26T19:37:06;60001.34;;;-145.46;88.37
76478;BME280;65309;49.790;18.972;2024-02-26T19:42:08;60037.06;;;-145.46;88.63
76478;BME280;65309;49.790;18.972;2024-02-26T19:47:12;60016.06;;;-145.46;90.38
76478;BME280;65309;49.790;18.972;2024-02-26T19:52:16;60041.28;;;-145.46;91.55
76478;BME280;65309;49.790;18.972;2024-02-26T19:57:19;60053.91;;;-145.46;91.50
76478;BME280;65309;49.790;18.972;2024-02-26T20:02:21;60011.84;;;-145.46;92.52
76478;BME280;65309;49.790;18.972;2024-02-26T20:07:25;59999.22;;;-145.46;92.33
76478;BME280;65309;49.790;18.972;2024-02-26T20:12:27;60028.66;;;-145.46;94.77
76478;BME280;65309;49.790;18.972;2024-02-26T20:17:30;60041.28;;;-145.46;95.69
76478;BME280;65309;49.790;18.972;2024-02-26T20:22:34;60039.19;;;-145.46;96.50
76478;BME280;65309;49.790;18.972;2024-02-26T20:27:40;60005.53;;;-145.46;98.33
76478;BME280;65309;49.790;18.972;2024-02-26T20:32:42;60032.88;;;-145.46;99.69
76478;BME280;65309;49.790;18.972;2024-02-26T20:37:46;60074.91;;;-145.46;100.00
76478;BME280;65309;49.790;18.972;2024-02-26T20:42:48;60032.88;;;-145.46;100.00
76478;BME280;65309;49.790;18.972;2024-02-26T20:47:50;60024.47;;;-145.46;100.00
76478;BME280;65309;49.790;18.972;2024-02-26T20:52:55;60095.94;;;-145.46;100.00
76478;BME280;65309;49.790;18.972;2024-02-26T20:57:58;60053.91;;;-145.46;100.00
76478;BME280;65309;49.790;18.972;2024-02-26T21:03:01;60041.28;;;-145.46;100.00
76478;BME280;65309;49.790;18.972;2024-02-26T21:08:11;60089.63;;;-145.46;100.00
76478;BME280;65309;49.790;18.972;2024-02-26T21:13:29;60066.50;;;-145.46;100.00
76478;BME280;65309;49.790;18.972;2024-02-26T21:18:31;60016.06;;;-145.46;100.00
76478;BME280;65309;49.790;18.972;2024-02-26T21:23:38;60039.19;;;-145.46;99.38
76478;BME280;65309;49.790;18.972;2024-02-26T21:28:40;60062.31;;;-145.46;99.25
76478;BME280;65309;49.790;18.972;2024-02-26T21:33:43;60022.34;;;-145.46;99.12
76478;BME280;65309;49.790;18.972;2024-02-26T21:38:48;60049.69;;;-145.46;100.00
76478;BME280;65309;49.790;18.972;2024-02-26T21:43:52;60066.50;;;-145.46;98.87
76478;BME280;65309;49.790;18.972;2024-02-26T21:48:55;60081.22;;;-145.46;99.77
76478;BME280;65309;49.790;18.972;2024-02-26T21:53:59;60028.66;;;-145.46;100.00
76478;BME280;65309;49.790;18.972;2024-02-26T21:59:02;60066.50;;;-145.46;100.00
76478;BME280;65309;49.790;18.972;2024-02-26T22:04:05;60045.47;;;-145.46;100.00
76478;BME280;65309;49.790;18.972;2024-02-26T22:09:09;60049.69;;;-145.46;96.67
76478;BME280;65309;49.790;18.972;2024-02-26T22:14:39;60028.66;;;-145.46;95.30
76478;BME280;65309;49.790;18.972;2024-02-26T22:19:49;60018.16;;;-145.46;93.88
76478;BME280;65309;49.790;18.972;2024-02-26T22:24:53;60083.31;;;-145.46;93.58
76478;BME280;65309;49.790;18.972;2024-02-26T22:29:55;60045.47;;;-145.46;94.44
76478;BME280;65309;49.790;18.972;2024-02-26T22:34:57;60062.31;;;-145.46;94.15
76478;BME280;65309;49.790;18.972;2024-02-26T22:40:01;60041.28;;;-145.46;94.00
76478;BME280;65309;49.790;18.972;2024-02-26T22:45:04;60066.50;;;-145.46;93.48
76478;BME280;65309;49.790;18.972;2024-02-26T22:50:08;59999.22;;;-145.46;93.20
76478;BME280;65309;49.790;18.972;2024-02-26T22:55:12;60005.53;;;-145.46;91.96
76478;BME280;65309;49.790;18.972;2024-02-26T23:00:15;60043.38;;;-145.46;91.32
76478;BME280;65309;49.790;18.972;2024-02-26T23:05:30;59990.81;;;-145.46;89.72
76478;BME280;65309;49.790;18.972;2024-02-26T23:10:33;60058.09;;;-145.46;89.72
76478;BME280;65309;49.790;18.972;2024-02-26T23:15:36;59995.03;;;-145.46;88.34
76478;BME280;65309;49.790;18.972;2024-02-26T23:20:38;60020.25;;;-145.46;87.49
76478;BME280;65309;49.790;18.972;2024-02-26T23:25:41;60058.09;;;-145.46;88.64
76478;BME280;65309;49.790;18.972;2024-02-26T23:30:43;60034.97;;;-145.46;89.13
76478;BME280;65309;49.790;18.972;2024-02-26T23:35:46;60022.34;;;-145.46;89.18
76478;BME280;65309;49.790;18.972;2024-02-26T23:40:49;60070.72;;;-145.46;89.67
76478;BME280;65309;49.790;18.972;2024-02-26T23:45:51;60034.97;;;-145.46;88.29
76478;BME280;65309;49.790;18.972;2024-02-26T23:50:53;60020.25;;;-145.46;86.79
76478;BME280;65309;49.790;18.972;2024-02-26T23:55:57;60024.47;;;-145.46;87.71
